PUUANAHULU RAWS NEAR KAILUA KONA 20NE HADS current weather conditions

sailwx.info

Wind from 262 at 3 knots gusting 6

Air temperature 18.9° C
Dewpoint 17.0° C

Last reported at 2017-Apr-27 05:37 UTC.
Time now 2017-Apr-27 07:13 UTC

Location: N 19°50' W 155°46'.
View on Google Maps.

See reports from other nearby stations

  
Tides and Currents Weather Stations Pressure Air Temp Water Temp Dewpoint Dewpoint Depression Visibility Wind Speed Wind Dir Waves Ship Positions
date/time (UTC)wind fromknots sea level pressurealtimeterstation pressurevisibilityair tempwater tempwave heightnotes
2017-Apr-27 05:37 262 3 gusting 6 18.9
2017-Apr-27 04:37 341 4 gusting 10 19.4
2017-Apr-27 03:37 319 5 gusting 13 20.0
2017-Apr-27 02:37 335 6 gusting 14 20.6
2017-Apr-27 01:37 284 6 gusting 13 21.1
2017-Apr-27 00:37 316 7 gusting 20 22.2
2017-Apr-26 23:37 348 10 gusting 18 23.9
2017-Apr-26 22:37 313 6 gusting 15 24.4
2017-Apr-26 21:37 331 6 gusting 13 25.0
2017-Apr-26 20:37 324 3 gusting 10 25.0
2017-Apr-26 19:37 337 5 gusting 9 22.8
2017-Apr-26 18:37 266 4 gusting 6 22.2
2017-Apr-26 17:37 162 5 gusting 10 20.6
2017-Apr-26 16:37 126 6 gusting 10 15.6
2017-Apr-26 15:37 142 7 gusting 11 14.4
2017-Apr-26 14:37 145 5 gusting 10 14.4
2017-Apr-26 13:37 142 4 gusting 7 15.6
2017-Apr-26 12:37 138 3 gusting 6 15.6
2017-Apr-26 11:37 115 4 gusting 5 16.7
2017-Apr-26 10:37 116 3 gusting 5 17.2
2017-Apr-26 09:37 096 2 gusting 4 18.3
2017-Apr-26 08:37 010 2 gusting 4 18.3
2017-Apr-26 07:37 023 1 gusting 4 18.3
2017-Apr-26 06:37 357 2 gusting 4 18.9
2017-Apr-26 05:37 312 2 gusting 7 19.4
2017-Apr-26 04:37 291 5 gusting 13 20.6
2017-Apr-26 03:37 280 7 gusting 18 23.3
2017-Apr-26 02:37 272 8 gusting 16 23.9
2017-Apr-26 01:37 284 10 gusting 18 25.0
2017-Apr-26 00:37 297 11 gusting 22 24.4
2017-Apr-25 23:37 282 9 gusting 20 25.6
2017-Apr-25 22:37 292 6 gusting 15 25.0
2017-Apr-25 21:37 257 6 gusting 13 25.0
2017-Apr-25 20:37 274 6 gusting 13 23.9
2017-Apr-25 19:37 309 7 gusting 13 22.8
2017-Apr-25 18:37 257 1 gusting 7 22.2
2017-Apr-25 17:37 221 0 gusting 6 20.0
2017-Apr-25 16:37 117 5 gusting 9 16.1
2017-Apr-25 15:37 216 1 gusting 9 15.6
2017-Apr-25 14:37 097 6 gusting 8 14.4
2017-Apr-25 13:37 128 6 gusting 9 14.4
2017-Apr-25 12:37 139 6 gusting 7 15.0
2017-Apr-25 11:37 150 5 gusting 9 15.6
2017-Apr-25 10:37 159 6 gusting 8 16.1
2017-Apr-25 09:37 176 6 gusting 8 15.6
2017-Apr-25 08:37 167 4 gusting 7 16.1
2017-Apr-25 07:37 169 5 gusting 7 17.8